This is the latest recevied weather packets stored in our database for station/object YG1CIC-13. If no packets are shown the sender has not sent any weather packets the latest 10 day(s).
| Time | Temp. | Humidity | Pressure | Rain* | Wind** | Luminosity | Snow |
|---|---|---|---|---|---|---|---|
| 1777774260 | 41.11° C | 50% | - | 0 mm | - | - | - |
| 1777773660 | 42.22° C | 48% | - | 0 mm | - | - | - |
| 1777773059 | 41.11° C | 50% | - | 0 mm | - | - | - |
| 1777772458 | 41.11° C | 51% | - | 0 mm | - | - | - |
| 1777771857 | 40.56° C | 52% | - | 0 mm | - | - | - |
| 1777771257 | 40.56° C | 52% | - | 0 mm | - | - | - |
| 1777770656 | 40° C | 54% | - | 0 mm | - | - | - |
| 1777770056 | 38.33° C | 59% | - | 0 mm | - | - | - |
| 1777769455 | 37.78° C | 60% | - | 0 mm | - | - | - |
| 1777768861 | 36.11° C | 63% | - | 0 mm | - | - | - |
| 1777768254 | 35° C | 67% | - | 0 mm | - | - | - |
| 1777767653 | 33.89° C | 71% | - | 0 mm | - | - | - |
| 1777767053 | 30.56° C | 83% | - | 0 mm | - | - | - |
| 1777766452 | 30° C | 83% | - | 0 mm | - | - | - |
| 1777765851 | 28.33° C | 89% | - | 0 mm | - | - | - |
| 1777765251 | 28.33° C | 91% | - | 0 mm | - | - | - |
| 1777764650 | 27.22° C | 87% | - | 0 mm | - | - | - |
| 1777764050 | 26.67° C | 90% | - | 0 mm | - | - | - |
| 1777763449 | 26.67° C | 92% | - | 0 mm | - | - | - |
| 1777762848 | 26.67° C | 89% | - | 0 mm | - | - | - |
| 1777762248 | 26.67° C | 89% | - | 0 mm | - | - | - |
| 1777761647 | 26.67° C | 89% | - | 0 mm | - | - | - |
| 1777761046 | 26.67° C | 88% | - | 0 mm | - | - | - |
| 1777760446 | 26.67° C | 92% | - | 0 mm | - | - | - |
| 1777759845 | 26.67° C | 90% | - | 0 mm | - | - | - |
* Rain latest hour (hover to see other rain measurements)
** Current wind speed in m/s (hover to see current wind gust speed)